sensor_id;sensor_type;location;lat;lon;timestamp;pressure;altitude;pressure_sealevel;temperature;humidity
48244;BME280;34053;51.088;6.572;2023-02-18T00:00:18;101736.19;;;10.69;87.49
48244;BME280;34053;51.088;6.572;2023-02-18T00:02:49;101734.47;;;10.65;87.76
48244;BME280;34053;51.088;6.572;2023-02-18T00:05:20;101737.06;;;10.70;87.59
48244;BME280;34053;51.088;6.572;2023-02-18T00:07:51;101736.25;;;10.63;87.98
48244;BME280;34053;51.088;6.572;2023-02-18T00:10:22;101736.13;;;10.73;87.45
48244;BME280;34053;51.088;6.572;2023-02-18T00:12:53;101743.22;;;10.67;87.99
48244;BME280;34053;51.088;6.572;2023-02-18T00:15:23;101735.34;;;10.67;87.76
48244;BME280;34053;51.088;6.572;2023-02-18T00:17:53;101731.88;;;10.64;87.94
48244;BME280;34053;51.088;6.572;2023-02-18T00:20:24;101730.13;;;10.66;88.03
48244;BME280;34053;51.088;6.572;2023-02-18T00:22:54;101724.88;;;10.63;88.10
48244;BME280;34053;51.088;6.572;2023-02-18T00:25:25;101727.53;;;10.61;88.41
48244;BME280;34053;51.088;6.572;2023-02-18T00:27:55;101726.59;;;10.65;88.20
48244;BME280;34053;51.088;6.572;2023-02-18T00:30:26;101707.38;;;10.65;87.96
48244;BME280;34053;51.088;6.572;2023-02-18T00:32:57;101703.00;;;10.62;88.42
48244;BME280;34053;51.088;6.572;2023-02-18T00:35:28;101708.25;;;10.62;88.07
48244;BME280;34053;51.088;6.572;2023-02-18T00:37:58;101698.63;;;10.63;88.52
48244;BME280;34053;51.088;6.572;2023-02-18T00:40:28;101689.06;;;10.57;88.49
48244;BME280;34053;51.088;6.572;2023-02-18T00:42:59;101696.06;;;10.58;88.17
48244;BME280;34053;51.088;6.572;2023-02-18T00:45:29;101695.28;;;10.50;88.72
48244;BME280;34053;51.088;6.572;2023-02-18T00:48:00;101691.66;;;10.59;88.71
48244;BME280;34053;51.088;6.572;2023-02-18T00:50:30;101687.38;;;10.53;89.07
48244;BME280;34053;51.088;6.572;2023-02-18T00:53:01;101686.44;;;10.57;88.79
48244;BME280;34053;51.088;6.572;2023-02-18T00:55:31;101691.75;;;10.52;88.60
48244;BME280;34053;51.088;6.572;2023-02-18T00:58:02;101686.47;;;10.54;88.52
48244;BME280;34053;51.088;6.572;2023-02-18T01:03:05;101683.94;;;10.48;89.13
48244;BME280;34053;51.088;6.572;2023-02-18T01:05:40;101679.50;;;10.53;89.58
48244;BME280;34053;51.088;6.572;2023-02-18T01:08:11;101680.41;;;10.52;89.12
48244;BME280;34053;51.088;6.572;2023-02-18T01:10:44;101671.66;;;10.53;88.73
48244;BME280;34053;51.088;6.572;2023-02-18T01:13:15;101668.09;;;10.57;88.85
48244;BME280;34053;51.088;6.572;2023-02-18T01:15:46;101678.72;;;10.46;89.41
48244;BME280;34053;51.088;6.572;2023-02-18T01:18:17;101671.66;;;10.50;88.50
48244;BME280;34053;51.088;6.572;2023-02-18T01:20:48;101671.69;;;10.48;89.16
48244;BME280;34053;51.088;6.572;2023-02-18T01:23:18;101662.88;;;10.52;88.95
48244;BME280;34053;51.088;6.572;2023-02-18T01:25:49;101665.56;;;10.49;88.61
48244;BME280;34053;51.088;6.572;2023-02-18T01:28:19;101670.00;;;10.43;89.21
48244;BME280;34053;51.088;6.572;2023-02-18T01:30:54;101664.66;;;10.50;89.20
48244;BME280;34053;51.088;6.572;2023-02-18T01:33:24;101662.09;;;10.47;89.29
48244;BME280;34053;51.088;6.572;2023-02-18T01:35:55;101656.81;;;10.49;89.23
48244;BME280;34053;51.088;6.572;2023-02-18T01:38:25;101662.03;;;10.50;89.31
48244;BME280;34053;51.088;6.572;2023-02-18T01:40:56;101652.53;;;10.42;90.48
48244;BME280;34053;51.088;6.572;2023-02-18T01:43:26;101653.41;;;10.41;91.20
48244;BME280;34053;51.088;6.572;2023-02-18T01:46:17;101644.66;;;10.42;91.56
48244;BME280;34053;51.088;6.572;2023-02-18T01:48:59;101644.66;;;10.42;91.56
48244;BME280;34053;51.088;6.572;2023-02-18T01:51:33;101636.81;;;10.40;91.98
48244;BME280;34053;51.088;6.572;2023-02-18T01:54:18;101642.97;;;10.33;92.67
48244;BME280;34053;51.088;6.572;2023-02-18T01:57:05;101630.75;;;10.32;93.61
48244;BME280;34053;51.088;6.572;2023-02-18T02:02:12;101618.47;;;10.37;93.05
48244;BME280;34053;51.088;6.572;2023-02-18T02:04:43;101627.28;;;10.30;94.05
48244;BME280;34053;51.088;6.572;2023-02-18T02:07:14;101622.00;;;10.33;93.19
48244;BME280;34053;51.088;6.572;2023-02-18T02:09:47;101618.47;;;10.34;93.37
48244;BME280;34053;51.088;6.572;2023-02-18T02:12:50;101615.91;;;10.28;94.16
48244;BME280;34053;51.088;6.572;2023-02-18T02:15:42;101613.41;;;10.20;95.05
48244;BME280;34053;51.088;6.572;2023-02-18T02:18:39;101613.28;;;10.28;94.88
48244;BME280;34053;51.088;6.572;2023-02-18T02:21:42;101606.38;;;10.23;94.70
48244;BME280;34053;51.088;6.572;2023-02-18T02:27:20;101601.94;;;10.27;94.89
48244;BME280;34053;51.088;6.572;2023-02-18T02:30:29;101588.84;;;10.24;95.07
48244;BME280;34053;51.088;6.572;2023-02-18T02:33:28;101596.81;;;10.18;95.65
48244;BME280;34053;51.088;6.572;2023-02-18T02:36:14;101591.50;;;10.21;95.17
48244;BME280;34053;51.088;6.572;2023-02-18T02:39:12;101582.69;;;10.28;94.95
48244;BME280;34053;51.088;6.572;2023-02-18T02:41:57;101572.25;;;10.25;94.37
48244;BME280;34053;51.088;6.572;2023-02-18T02:47:14;101566.13;;;10.23;94.52
48244;BME280;34053;51.088;6.572;2023-02-18T02:52:32;101553.06;;;10.18;94.78
48244;BME280;34053;51.088;6.572;2023-02-18T02:55:11;101552.16;;;10.21;94.74
48244;BME280;34053;51.088;6.572;2023-02-18T02:57:45;101543.41;;;10.23;94.07
48244;BME280;34053;51.088;6.572;2023-02-18T03:00:18;101543.41;;;10.23;94.05
48244;BME280;34053;51.088;6.572;2023-02-18T03:03:04;101551.28;;;10.22;94.39
48244;BME280;34053;51.088;6.572;2023-02-18T03:11:16;101539.81;;;10.31;93.62
48244;BME280;34053;51.088;6.572;2023-02-18T03:13:56;101532.84;;;10.30;93.27
48244;BME280;34053;51.088;6.572;2023-02-18T03:16:47;101551.13;;;10.34;92.74
48244;BME280;34053;51.088;6.572;2023-02-18T03:19:23;101542.44;;;10.29;93.39
48244;BME280;34053;51.088;6.572;2023-02-18T03:22:06;101542.38;;;10.34;93.16
48244;BME280;34053;51.088;6.572;2023-02-18T03:24:44;101542.44;;;10.29;92.84
48244;BME280;34053;51.088;6.572;2023-02-18T03:29:59;101538.94;;;10.32;93.64
48244;BME280;34053;51.088;6.572;2023-02-18T03:32:35;101535.44;;;10.33;93.29
48244;BME280;34053;51.088;6.572;2023-02-18T03:35:11;101539.03;;;10.24;94.32
48244;BME280;34053;51.088;6.572;2023-02-18T03:37:54;101531.97;;;10.28;94.16
48244;BME280;34053;51.088;6.572;2023-02-18T03:40:30;101533.78;;;10.24;94.37
48244;BME280;34053;51.088;6.572;2023-02-18T03:43:01;101530.25;;;10.28;94.25
48244;BME280;34053;51.088;6.572;2023-02-18T03:45:31;101529.34;;;10.28;94.12
48244;BME280;34053;51.088;6.572;2023-02-18T03:48:02;101525.03;;;10.25;93.81
48244;BME280;34053;51.088;6.572;2023-02-18T03:50:32;101510.22;;;10.19;93.83
48244;BME280;34053;51.088;6.572;2023-02-18T03:53:03;101506.69;;;10.22;94.09
48244;BME280;34053;51.088;6.572;2023-02-18T03:55:34;101508.41;;;10.26;93.63
48244;BME280;34053;51.088;6.572;2023-02-18T03:58:04;101507.56;;;10.21;93.46
48244;BME280;34053;51.088;6.572;2023-02-18T04:00:34;101502.34;;;10.21;93.29
48244;BME280;34053;51.088;6.572;2023-02-18T04:03:05;101499.78;;;10.15;93.98
48244;BME280;34053;51.088;6.572;2023-02-18T04:05:35;101492.78;;;10.17;94.03
48244;BME280;34053;51.088;6.572;2023-02-18T04:08:06;101494.56;;;10.15;94.64
48244;BME280;34053;51.088;6.572;2023-02-18T04:10:36;101474.47;;;10.14;95.51
48244;BME280;34053;51.088;6.572;2023-02-18T04:13:07;101474.53;;;10.11;96.73
48244;BME280;34053;51.088;6.572;2023-02-18T04:15:37;101476.28;;;10.08;97.02
48244;BME280;34053;51.088;6.572;2023-02-18T04:18:08;101479.91;;;9.98;98.11
48244;BME280;34053;51.088;6.572;2023-02-18T04:20:38;101476.38;;;10.01;98.31
48244;BME280;34053;51.088;6.572;2023-02-18T04:23:09;101472.88;;;10.03;98.52
48244;BME280;34053;51.088;6.572;2023-02-18T04:25:39;101476.41;;;9.99;98.07
48244;BME280;34053;51.088;6.572;2023-02-18T04:28:12;101475.50;;;10.02;97.91
48244;BME280;34053;51.088;6.572;2023-02-18T04:30:43;101477.34;;;9.93;98.61
48244;BME280;34053;51.088;6.572;2023-02-18T04:33:14;101473.84;;;9.95;99.01
48244;BME280;34053;51.088;6.572;2023-02-18T04:35:44;101478.28;;;9.89;99.01
48244;BME280;34053;51.088;6.572;2023-02-18T04:38:15;101466.00;;;9.93;99.08
48244;BME280;34053;51.088;6.572;2023-02-18T04:40:45;101459.94;;;9.86;99.23
48244;BME280;34053;51.088;6.572;2023-02-18T04:43:16;101466.09;;;9.87;99.70
48244;BME280;34053;51.088;6.572;2023-02-18T04:45:46;101465.13;;;9.94;99.19
48244;BME280;34053;51.088;6.572;2023-02-18T04:48:17;101458.16;;;9.90;99.15
48244;BME280;34053;51.088;6.572;2023-02-18T04:50:47;101466.06;;;9.85;99.85
48244;BME280;34053;51.088;6.572;2023-02-18T04:53:18;101457.31;;;9.88;99.74
48244;BME280;34053;51.088;6.572;2023-02-18T04:55:49;101458.19;;;9.88;99.27
48244;BME280;34053;51.088;6.572;2023-02-18T04:58:21;101465.13;;;9.91;99.36
48244;BME280;34053;51.088;6.572;2023-02-18T05:00:51;101450.34;;;9.87;99.31
48244;BME280;34053;51.088;6.572;2023-02-18T05:03:23;101451.38;;;9.75;99.84
48244;BME280;34053;51.088;6.572;2023-02-18T05:05:53;101448.72;;;9.76;100.00
48244;BME280;34053;51.088;6.572;2023-02-18T05:08:24;101452.19;;;9.77;100.00
48244;BME280;34053;51.088;6.572;2023-02-18T05:10:54;101447.84;;;9.76;100.00
48244;BME280;34053;51.088;6.572;2023-02-18T05:13:25;101441.81;;;9.69;100.00
48244;BME280;34053;51.088;6.572;2023-02-18T05:15:55;101447.88;;;9.71;100.00
48244;BME280;34053;51.088;6.572;2023-02-18T05:18:26;101446.22;;;9.67;100.00
48244;BME280;34053;51.088;6.572;2023-02-18T05:20:56;101446.16;;;9.72;100.00
48244;BME280;34053;51.088;6.572;2023-02-18T05:23:27;101448.81;;;9.70;100.00
48244;BME280;34053;51.088;6.572;2023-02-18T05:25:57;101431.34;;;9.68;100.00
48244;BME280;34053;51.088;6.572;2023-02-18T05:28:28;101431.34;;;9.69;100.00
48244;BME280;34053;51.088;6.572;2023-02-18T05:30:58;101438.25;;;9.73;100.00
48244;BME280;34053;51.088;6.572;2023-02-18T05:33:29;101429.63;;;9.65;100.00
48244;BME280;34053;51.088;6.572;2023-02-18T05:35:59;101428.72;;;9.68;100.00
48244;BME280;34053;51.088;6.572;2023-02-18T05:38:30;101415.63;;;9.69;100.00
48244;BME280;34053;51.088;6.572;2023-02-18T05:41:00;101420.91;;;9.63;100.00
48244;BME280;34053;51.088;6.572;2023-02-18T05:43:31;101403.47;;;9.60;100.00
48244;BME280;34053;51.088;6.572;2023-02-18T05:46:22;101403.50;;;9.59;100.00
48244;BME280;34053;51.088;6.572;2023-02-18T05:48:52;101399.09;;;9.63;100.00
48244;BME280;34053;51.088;6.572;2023-02-18T05:51:23;101395.63;;;9.62;100.00
48244;BME280;34053;51.088;6.572;2023-02-18T05:53:54;101392.13;;;9.61;100.00
48244;BME280;34053;51.088;6.572;2023-02-18T05:56:24;101389.56;;;9.58;100.00
48244;BME280;34053;51.088;6.572;2023-02-18T05:58:55;101380.78;;;9.61;100.00
48244;BME280;34053;51.088;6.572;2023-02-18T06:01:25;101375.53;;;9.61;100.00
48244;BME280;34053;51.088;6.572;2023-02-18T06:03:56;101368.50;;;9.63;98.82
48244;BME280;34053;51.088;6.572;2023-02-18T06:06:26;101368.56;;;9.60;99.18
48244;BME280;34053;51.088;6.572;2023-02-18T06:08:57;101368.59;;;9.57;98.82
48244;BME280;34053;51.088;6.572;2023-02-18T06:11:27;101367.69;;;9.59;98.79
48244;BME280;34053;51.088;6.572;2023-02-18T06:13:58;101364.25;;;9.57;98.50
48244;BME280;34053;51.088;6.572;2023-02-18T06:16:28;101361.63;;;9.56;98.34
48244;BME280;34053;51.088;6.572;2023-02-18T06:18:59;101380.88;;;9.52;98.12
48244;BME280;34053;51.088;6.572;2023-02-18T06:21:30;101368.50;;;9.63;97.61
48244;BME280;34053;51.088;6.572;2023-02-18T06:24:01;101365.91;;;9.61;97.14
48244;BME280;34053;51.088;6.572;2023-02-18T06:26:31;101369.41;;;9.62;96.61
48244;BME280;34053;51.088;6.572;2023-02-18T06:29:02;101376.38;;;9.63;95.97
48244;BME280;34053;51.088;6.572;2023-02-18T06:31:33;101376.38;;;9.63;95.64
48244;BME280;34053;51.088;6.572;2023-02-18T06:34:03;101372.88;;;9.66;95.38
48244;BME280;34053;51.088;6.572;2023-02-18T06:36:34;101378.13;;;9.63;95.38
48244;BME280;34053;51.088;6.572;2023-02-18T06:39:06;101372.03;;;9.62;94.43
48244;BME280;34053;51.088;6.572;2023-02-18T06:41:36;101370.25;;;9.64;94.55
48244;BME280;34053;51.088;6.572;2023-02-18T06:44:07;101357.19;;;9.63;94.26
48244;BME280;34053;51.088;6.572;2023-02-18T06:46:37;101350.09;;;9.68;93.62
48244;BME280;34053;51.088;6.572;2023-02-18T06:49:08;101357.19;;;9.63;93.37
48244;BME280;34053;51.088;6.572;2023-02-18T06:51:38;101357.13;;;9.67;92.98
48244;BME280;34053;51.088;6.572;2023-02-18T06:54:09;101357.13;;;9.67;92.65
48244;BME280;34053;51.088;6.572;2023-02-18T06:56:39;101371.97;;;9.67;92.46
48244;BME280;34053;51.088;6.572;2023-02-18T06:59:09;101373.69;;;9.68;92.04
48244;BME280;34053;51.088;6.572;2023-02-18T07:01:40;101382.38;;;9.71;91.96
48244;BME280;34053;51.088;6.572;2023-02-18T07:04:11;101373.69;;;9.69;91.51
48244;BME280;34053;51.088;6.572;2023-02-18T07:06:42;101380.66;;;9.70;90.85
48244;BME280;34053;51.088;6.572;2023-02-18T07:09:12;101389.41;;;9.69;90.86
48244;BME280;34053;51.088;6.572;2023-02-18T07:11:43;101392.00;;;9.71;90.63
48244;BME280;34053;51.088;6.572;2023-02-18T07:14:13;101384.16;;;9.69;90.87
48244;BME280;34053;51.088;6.572;2023-02-18T07:16:43;101393.78;;;9.70;90.53
48244;BME280;34053;51.088;6.572;2023-02-18T07:19:14;101388.53;;;9.70;90.30
48244;BME280;34053;51.088;6.572;2023-02-18T07:21:44;101383.28;;;9.69;89.38
48244;BME280;34053;51.088;6.572;2023-02-18T07:24:15;101384.16;;;9.69;89.93
48244;BME280;34053;51.088;6.572;2023-02-18T07:26:45;101378.06;;;9.67;89.27
48244;BME280;34053;51.088;6.572;2023-02-18T07:29:16;101376.28;;;9.71;88.96
48244;BME280;34053;51.088;6.572;2023-02-18T07:31:46;101368.50;;;9.65;89.69
48244;BME280;34053;51.088;6.572;2023-02-18T07:34:16;101378.16;;;9.61;91.45
48244;BME280;34053;51.088;6.572;2023-02-18T07:36:47;101376.41;;;9.61;92.09
48244;BME280;34053;51.088;6.572;2023-02-18T07:39:17;101386.06;;;9.58;93.07
48244;BME280;34053;51.088;6.572;2023-02-18T07:41:50;101383.47;;;9.56;93.78
48244;BME280;34053;51.088;6.572;2023-02-18T07:44:20;101386.06;;;9.55;93.36
48244;BME280;34053;51.088;6.572;2023-02-18T07:46:50;101399.13;;;9.59;91.61
48244;BME280;34053;51.088;6.572;2023-02-18T07:49:22;101390.44;;;9.57;91.09
48244;BME280;34053;51.088;6.572;2023-02-18T07:51:52;101416.59;;;9.59;90.79
48244;BME280;34053;51.088;6.572;2023-02-18T07:54:23;101404.38;;;9.58;89.87
48244;BME280;34053;51.088;6.572;2023-02-18T07:56:54;101416.59;;;9.59;89.92
48244;BME280;34053;51.088;6.572;2023-02-18T07:59:24;101413.16;;;9.55;90.50
48244;BME280;34053;51.088;6.572;2023-02-18T08:01:55;101413.25;;;9.49;90.71
48244;BME280;34053;51.088;6.572;2023-02-18T08:04:26;101426.31;;;9.51;91.78
48244;BME280;34053;51.088;6.572;2023-02-18T08:06:56;101425.56;;;9.41;92.55
48244;BME280;34053;51.088;6.572;2023-02-18T08:09:26;101417.75;;;9.36;91.99
48244;BME280;34053;51.088;6.572;2023-02-18T08:11:57;101422.06;;;9.39;92.48
48244;BME280;34053;51.088;6.572;2023-02-18T08:14:27;101421.25;;;9.35;91.94
48244;BME280;34053;51.088;6.572;2023-02-18T08:16:58;101417.75;;;9.36;91.23
48244;BME280;34053;51.088;6.572;2023-02-18T08:19:28;101438.72;;;9.33;90.50
48244;BME280;34053;51.088;6.572;2023-02-18T08:22:02;101442.28;;;9.26;90.72
48244;BME280;34053;51.088;6.572;2023-02-18T08:24:32;101435.25;;;9.31;91.08
48244;BME280;34053;51.088;6.572;2023-02-18T08:27:03;101439.63;;;9.31;90.00
48244;BME280;34053;51.088;6.572;2023-02-18T08:29:33;101441.34;;;9.33;89.72
48244;BME280;34053;51.088;6.572;2023-02-18T08:32:04;101451.84;;;9.28;89.11
48244;BME280;34053;51.088;6.572;2023-02-18T08:34:34;101444.03;;;9.24;89.00
48244;BME280;34053;51.088;6.572;2023-02-18T08:37:05;101446.66;;;9.25;88.67
48244;BME280;34053;51.088;6.572;2023-02-18T08:39:36;101442.28;;;9.26;88.30
48244;BME280;34053;51.088;6.572;2023-02-18T08:42:07;101432.66;;;9.28;88.12
48244;BME280;34053;51.088;6.572;2023-02-18T08:44:38;101430.84;;;9.33;88.16
48244;BME280;34053;51.088;6.572;2023-02-18T08:47:08;101439.56;;;9.35;87.16
48244;BME280;34053;51.088;6.572;2023-02-18T08:49:38;101440.44;;;9.36;87.31
48244;BME280;34053;51.088;6.572;2023-02-18T08:52:09;101436.88;;;9.41;87.68
48244;BME280;34053;51.088;6.572;2023-02-18T08:54:39;101444.81;;;9.35;87.53
48244;BME280;34053;51.088;6.572;2023-02-18T08:57:10;101439.56;;;9.35;87.47
48244;BME280;34053;51.088;6.572;2023-02-18T08:59:41;101436.88;;;9.41;87.06
48244;BME280;34053;51.088;6.572;2023-02-18T09:02:14;101429.03;;;9.38;86.46
48244;BME280;34053;51.088;6.572;2023-02-18T09:04:45;101425.53;;;9.39;86.31
48244;BME280;34053;51.088;6.572;2023-02-18T09:07:15;101426.47;;;9.37;86.04
48244;BME280;34053;51.088;6.572;2023-02-18T09:09:46;101428.16;;;9.39;85.76
48244;BME280;34053;51.088;6.572;2023-02-18T09:12:16;101421.22;;;9.37;85.57
48244;BME280;34053;51.088;6.572;2023-02-18T09:14:47;101419.41;;;9.43;85.52
48244;BME280;34053;51.088;6.572;2023-02-18T09:17:18;101408.94;;;9.40;84.75
48244;BME280;34053;51.088;6.572;2023-02-18T09:19:48;101418.53;;;9.43;84.67
48244;BME280;34053;51.088;6.572;2023-02-18T09:22:19;101416.75;;;9.48;85.19
48244;BME280;34053;51.088;6.572;2023-02-18T09:24:50;101407.06;;;9.53;85.07
48244;BME280;34053;51.088;6.572;2023-02-18T09:27:20;101416.63;;;9.57;84.65
48244;BME280;34053;51.088;6.572;2023-02-18T09:29:51;101413.06;;;9.65;84.75
48244;BME280;34053;51.088;6.572;2023-02-18T09:32:21;101413.97;;;9.62;84.25
48244;BME280;34053;51.088;6.572;2023-02-18T09:34:52;101393.00;;;9.62;83.84
48244;BME280;34053;51.088;6.572;2023-02-18T09:37:22;101406.91;;;9.67;83.74
48244;BME280;34053;51.088;6.572;2023-02-18T09:39:53;101385.09;;;9.67;82.79
48244;BME280;34053;51.088;6.572;2023-02-18T09:42:30;101396.41;;;9.67;83.45
48244;BME280;34053;51.088;6.572;2023-02-18T09:45:05;101398.06;;;9.74;83.88
48244;BME280;34053;51.088;6.572;2023-02-18T09:47:38;101402.41;;;9.77;82.57
48244;BME280;34053;51.088;6.572;2023-02-18T09:50:30;101398.03;;;9.77;82.97
48244;BME280;34053;51.088;6.572;2023-02-18T09:53:02;101396.25;;;9.81;82.18
48244;BME280;34053;51.088;6.572;2023-02-18T09:55:38;101404.13;;;9.78;82.07
48244;BME280;34053;51.088;6.572;2023-02-18T09:58:16;101414.66;;;9.76;81.38
48244;BME280;34053;51.088;6.572;2023-02-18T10:01:10;101389.31;;;9.75;81.88
48244;BME280;34053;51.088;6.572;2023-02-18T10:03:42;101401.56;;;9.73;82.29
48244;BME280;34053;51.088;6.572;2023-02-18T10:06:25;101391.09;;;9.73;82.08
48244;BME280;34053;51.088;6.572;2023-02-18T10:09:00;101378.75;;;9.82;82.07
48244;BME280;34053;51.088;6.572;2023-02-18T10:11:37;101371.84;;;9.77;81.48
48244;BME280;34053;51.088;6.572;2023-02-18T10:14:13;101380.50;;;9.83;80.80
48244;BME280;34053;51.088;6.572;2023-02-18T10:16:45;101384.91;;;9.79;81.39
48244;BME280;34053;51.088;6.572;2023-02-18T10:19:32;101387.50;;;9.81;81.41
48244;BME280;34053;51.088;6.572;2023-02-18T10:22:05;101390.03;;;9.88;81.34
48244;BME280;34053;51.088;6.572;2023-02-18T10:24:41;101381.34;;;9.85;81.42
48244;BME280;34053;51.088;6.572;2023-02-18T10:27:18;101383.13;;;9.83;81.60
48244;BME280;34053;51.088;6.572;2023-02-18T10:29:50;101389.28;;;9.80;82.08
48244;BME280;34053;51.088;6.572;2023-02-18T10:32:42;101396.25;;;9.80;82.62
48244;BME280;34053;51.088;6.572;2023-02-18T10:38:00;101398.16;;;9.68;84.98
48244;BME280;34053;51.088;6.572;2023-02-18T10:51:36;101419.34;;;9.47;89.98
48244;BME280;34053;51.088;6.572;2023-02-18T10:54:08;101416.66;;;9.54;89.77
48244;BME280;34053;51.088;6.572;2023-02-18T10:56:47;101421.09;;;9.48;88.80
48244;BME280;34053;51.088;6.572;2023-02-18T10:59:21;101422.84;;;9.49;89.36
48244;BME280;34053;51.088;6.572;2023-02-18T11:01:55;101428.03;;;9.52;89.17
48244;BME280;34053;51.088;6.572;2023-02-18T11:04:34;101425.47;;;9.50;89.56
48244;BME280;34053;51.088;6.572;2023-02-18T11:07:15;101407.16;;;9.45;89.95
48244;BME280;34053;51.088;6.572;2023-02-18T11:09:49;101413.25;;;9.46;90.68
48244;BME280;34053;51.088;6.572;2023-02-18T11:15:24;101423.72;;;9.48;92.27
48244;BME280;34053;51.088;6.572;2023-02-18T11:18:12;101424.72;;;9.37;92.74
48244;BME280;34053;51.088;6.572;2023-02-18T11:20:55;101427.25;;;9.43;93.38
48244;BME280;34053;51.088;6.572;2023-02-18T11:23:27;101432.47;;;9.45;94.19
48244;BME280;34053;51.088;6.572;2023-02-18T11:26:02;101424.66;;;9.43;94.88
48244;BME280;34053;51.088;6.572;2023-02-18T11:28:57;101429.06;;;9.40;94.84
48244;BME280;34053;51.088;6.572;2023-02-18T11:31:39;101416.81;;;9.40;95.00
48244;BME280;34053;51.088;6.572;2023-02-18T11:34:22;101416.88;;;9.34;95.64
48244;BME280;34053;51.088;6.572;2023-02-18T11:37:07;101419.47;;;9.37;95.47
48244;BME280;34053;51.088;6.572;2023-02-18T11:39:43;101415.97;;;9.37;95.75
48244;BME280;34053;51.088;6.572;2023-02-18T11:42:17;101424.72;;;9.36;96.28
48244;BME280;34053;51.088;6.572;2023-02-18T11:47:29;101414.28;;;9.31;96.90
48244;BME280;34053;51.088;6.572;2023-02-18T11:52:45;101417.69;;;9.39;97.44
48244;BME280;34053;51.088;6.572;2023-02-18T11:55:24;101430.81;;;9.38;97.54
48244;BME280;34053;51.088;6.572;2023-02-18T11:58:00;101423.81;;;9.38;97.13
48244;BME280;34053;51.088;6.572;2023-02-18T12:00:39;101425.56;;;9.41;96.83
48244;BME280;34053;51.088;6.572;2023-02-18T12:03:32;101416.75;;;9.45;97.06
48244;BME280;34053;51.088;6.572;2023-02-18T12:06:17;101418.50;;;9.46;97.38
48244;BME280;34053;51.088;6.572;2023-02-18T12:09:00;101419.34;;;9.50;97.38
48244;BME280;34053;51.088;6.572;2023-02-18T12:11:36;101428.97;;;9.49;97.28
48244;BME280;34053;51.088;6.572;2023-02-18T12:14:21;101426.38;;;9.44;97.22
48244;BME280;34053;51.088;6.572;2023-02-18T12:19:57;101427.25;;;9.43;97.24
48244;BME280;34053;51.088;6.572;2023-02-18T12:25:41;101422.84;;;9.49;97.75
48244;BME280;34053;51.088;6.572;2023-02-18T12:28:35;101412.41;;;9.45;98.45
48244;BME280;34053;51.088;6.572;2023-02-18T12:37:42;101417.59;;;9.49;98.89
48244;BME280;34053;51.088;6.572;2023-02-18T12:40:31;101415.84;;;9.48;98.56
48244;BME280;34053;51.088;6.572;2023-02-18T12:49:44;101415.81;;;9.51;99.13
48244;BME280;34053;51.088;6.572;2023-02-18T13:01:58;101414.16;;;9.43;99.10
48244;BME280;34053;51.088;6.572;2023-02-18T13:07:42;101420.25;;;9.47;99.63
48244;BME280;34053;51.088;6.572;2023-02-18T13:13:21;101411.53;;;9.45;99.47
48244;BME280;34053;51.088;6.572;2023-02-18T13:15:57;101423.75;;;9.46;99.70
48244;BME280;34053;51.088;6.572;2023-02-18T13:18:42;101424.59;;;9.48;98.90
48244;BME280;34053;51.088;6.572;2023-02-18T13:21:15;101422.81;;;9.52;99.08
48244;BME280;34053;51.088;6.572;2023-02-18T13:23:52;101419.34;;;9.50;98.79
48244;BME280;34053;51.088;6.572;2023-02-18T13:26:25;101433.28;;;9.52;99.31
48244;BME280;34053;51.088;6.572;2023-02-18T13:32:38;101419.31;;;9.53;99.90
48244;BME280;34053;51.088;6.572;2023-02-18T13:36:22;101412.28;;;9.55;99.95
48244;BME280;34053;51.088;6.572;2023-02-18T13:39:13;101411.50;;;9.48;100.00
48244;BME280;34053;51.088;6.572;2023-02-18T13:42:54;101416.72;;;9.50;100.00
48244;BME280;34053;51.088;6.572;2023-02-18T13:45:22;101410.50;;;9.58;100.00
48244;BME280;34053;51.088;6.572;2023-02-18T13:47:53;101418.41;;;9.52;100.00
48244;BME280;34053;51.088;6.572;2023-02-18T13:50:38;101420.22;;;9.49;100.00
48244;BME280;34053;51.088;6.572;2023-02-18T13:58:40;101417.50;;;9.58;100.00
48244;BME280;34053;51.088;6.572;2023-02-18T14:01:13;101415.72;;;9.60;99.67
48244;BME280;34053;51.088;6.572;2023-02-18T14:06:25;101420.91;;;9.65;99.15
48244;BME280;34053;51.088;6.572;2023-02-18T14:11:47;101423.56;;;9.61;99.87
48244;BME280;34053;51.088;6.572;2023-02-18T14:27:39;101413.13;;;9.57;99.44
48244;BME280;34053;51.088;6.572;2023-02-18T14:30:38;101419.19;;;9.62;99.76
48244;BME280;34053;51.088;6.572;2023-02-18T14:33:13;101412.19;;;9.63;99.49
48244;BME280;34053;51.088;6.572;2023-02-18T14:36:24;101413.91;;;9.65;99.43
48244;BME280;34053;51.088;6.572;2023-02-18T14:38:57;101418.25;;;9.66;99.70
48244;BME280;34053;51.088;6.572;2023-02-18T14:41:47;101410.38;;;9.69;99.60
48244;BME280;34053;51.088;6.572;2023-02-18T14:49:56;101412.22;;;9.61;100.00
48244;BME280;34053;51.088;6.572;2023-02-18T14:52:42;101412.22;;;9.61;100.00
48244;BME280;34053;51.088;6.572;2023-02-18T14:55:22;101414.00;;;9.59;100.00
48244;BME280;34053;51.088;6.572;2023-02-18T15:01:31;101409.59;;;9.59;100.00
48244;BME280;34053;51.088;6.572;2023-02-18T15:04:03;101407.00;;;9.58;100.00
48244;BME280;34053;51.088;6.572;2023-02-18T15:06:35;101400.00;;;9.60;100.00
48244;BME280;34053;51.088;6.572;2023-02-18T15:09:20;101408.63;;;9.68;100.00
48244;BME280;34053;51.088;6.572;2023-02-18T15:12:03;101400.81;;;9.65;100.00
48244;BME280;34053;51.088;6.572;2023-02-18T15:14:37;101399.88;;;9.68;100.00
48244;BME280;34053;51.088;6.572;2023-02-18T15:17:16;101404.31;;;9.66;100.00
48244;BME280;34053;51.088;6.572;2023-02-18T15:19:51;101400.00;;;9.60;100.00
48244;BME280;34053;51.088;6.572;2023-02-18T15:22:23;101406.13;;;9.59;100.00
48244;BME280;34053;51.088;6.572;2023-02-18T15:24:55;101401.78;;;9.55;100.00
48244;BME280;34053;51.088;6.572;2023-02-18T15:27:28;101400.88;;;9.59;100.00
48244;BME280;34053;51.088;6.572;2023-02-18T15:30:20;101404.44;;;9.53;100.00